createdAt,value
2023-01-06T00:01:15.964Z,99.90
2023-01-06T00:04:03.179Z,99.90
2023-01-06T00:06:50.126Z,99.90
2023-01-06T00:09:35.680Z,99.90
2023-01-06T00:12:21.093Z,99.90
2023-01-06T00:15:06.916Z,99.90
2023-01-06T00:17:52.191Z,99.90
2023-01-06T00:20:38.033Z,99.90
2023-01-06T00:23:25.074Z,99.90
2023-01-06T00:26:10.840Z,99.90
2023-01-06T00:28:56.986Z,99.90
2023-01-06T00:31:44.808Z,99.90
2023-01-06T00:34:30.360Z,99.90
2023-01-06T00:37:15.841Z,99.90
2023-01-06T00:40:02.726Z,99.90
2023-01-06T00:42:48.166Z,99.90
2023-01-06T00:45:33.406Z,99.90
2023-01-06T00:48:19.235Z,99.90
2023-01-06T00:51:05.055Z,99.90
2023-01-06T00:53:50.814Z,99.90
2023-01-06T00:56:37.952Z,99.90
2023-01-06T00:59:24.338Z,99.90
2023-01-06T01:02:10.134Z,99.90
2023-01-06T01:04:55.728Z,99.90
2023-01-06T01:07:41.490Z,99.90
2023-01-06T01:10:27.173Z,99.90
2023-01-06T01:13:13.989Z,99.90
2023-01-06T01:16:03.390Z,99.90
2023-01-06T01:18:48.802Z,99.90
2023-01-06T01:21:34.631Z,99.90
2023-01-06T01:24:20.504Z,99.90
2023-01-06T01:27:06.367Z,99.90
2023-01-06T01:29:53.277Z,99.90
2023-01-06T01:32:38.858Z,99.90
2023-01-06T01:35:24.375Z,99.90
2023-01-06T01:38:09.987Z,99.90
2023-01-06T01:40:55.479Z,99.90
2023-01-06T01:43:44.753Z,99.90
2023-01-06T01:46:33.822Z,99.90
2023-01-06T01:49:23.195Z,99.90
2023-01-06T01:52:10.614Z,99.90
2023-01-06T01:54:57.149Z,99.90
2023-01-06T01:57:45.385Z,99.90
2023-01-06T02:00:31.415Z,99.90
2023-01-06T02:03:20.104Z,99.90
2023-01-06T02:06:07.579Z,99.90
2023-01-06T02:08:56.042Z,99.90
2023-01-06T02:11:42.147Z,99.90
2023-01-06T02:14:30.228Z,99.90
2023-01-06T02:17:27.009Z,99.90
2023-01-06T02:20:21.321Z,99.90
2023-01-06T02:23:19.813Z,99.90
2023-01-06T02:26:33.547Z,99.90
2023-01-06T02:29:37.894Z,99.90
2023-01-06T02:32:34.599Z,99.90
2023-01-06T02:35:38.551Z,99.90
2023-01-06T02:38:28.506Z,99.90
2023-01-06T02:41:21.101Z,99.90
2023-01-06T02:44:10.658Z,99.90
2023-01-06T02:47:17.958Z,99.90
2023-01-06T02:50:10.130Z,99.90
2023-01-06T02:52:57.906Z,99.90
2023-01-06T02:55:46.509Z,99.90
2023-01-06T02:58:34.519Z,99.90
2023-01-06T03:01:25.252Z,99.90
2023-01-06T03:04:11.706Z,99.90
2023-01-06T03:07:02.466Z,99.90
2023-01-06T03:09:51.186Z,99.90
2023-01-06T03:12:39.013Z,99.90
2023-01-06T03:15:25.587Z,99.90
2023-01-06T03:18:11.620Z,99.90
2023-01-06T03:20:59.524Z,99.90
2023-01-06T03:23:46.779Z,99.90
2023-01-06T03:26:33.103Z,99.90
2023-01-06T03:29:20.479Z,99.90
2023-01-06T03:32:10.207Z,99.90
2023-01-06T03:35:06.145Z,99.90
2023-01-06T03:37:54.622Z,99.90
2023-01-06T03:40:43.898Z,99.90
2023-01-06T03:43:34.477Z,99.90
2023-01-06T03:46:24.856Z,99.90
2023-01-06T03:49:16.733Z,99.90
2023-01-06T03:52:05.586Z,99.90
2023-01-06T03:54:54.647Z,99.90
2023-01-06T03:57:43.234Z,99.90
2023-01-06T04:00:32.153Z,99.90
2023-01-06T04:03:24.089Z,99.90
2023-01-06T04:06:10.717Z,99.90
2023-01-06T04:08:57.686Z,99.90
2023-01-06T04:12:02.417Z,99.90
2023-01-06T04:14:51.642Z,99.90
2023-01-06T04:17:37.517Z,99.90
2023-01-06T04:20:24.179Z,99.90
2023-01-06T04:23:14.281Z,99.90
2023-01-06T04:26:00.636Z,99.90
2023-01-06T04:28:53.373Z,99.90
2023-01-06T04:31:40.244Z,99.90
2023-01-06T04:34:25.739Z,99.90
2023-01-06T04:37:12.806Z,99.90
2023-01-06T04:39:58.310Z,99.90
2023-01-06T04:43:02.179Z,99.90
2023-01-06T04:45:47.781Z,99.90
2023-01-06T04:48:35.025Z,99.90
2023-01-06T04:51:20.552Z,99.90
2023-01-06T04:54:05.882Z,99.90
2023-01-06T04:56:51.410Z,99.90
2023-01-06T04:59:36.855Z,99.90
2023-01-06T05:02:22.127Z,99.90
2023-01-06T05:05:09.747Z,99.90
2023-01-06T05:07:55.289Z,99.90
2023-01-06T05:10:40.864Z,99.90
2023-01-06T05:13:26.278Z,99.90
2023-01-06T05:16:14.063Z,99.90
2023-01-06T05:19:00.034Z,99.90
2023-01-06T05:21:46.723Z,99.90
2023-01-06T05:24:32.161Z,99.90
2023-01-06T05:27:17.919Z,99.90
2023-01-06T05:30:03.928Z,99.90
2023-01-06T05:32:49.256Z,99.90
2023-01-06T05:35:34.520Z,99.90
2023-01-06T05:38:21.171Z,99.90
2023-01-06T05:41:07.225Z,99.90
2023-01-06T05:43:52.847Z,99.90
2023-01-06T05:46:38.364Z,99.90
2023-01-06T05:49:23.842Z,99.90
2023-01-06T05:52:09.578Z,99.90
2023-01-06T05:54:56.205Z,99.90
2023-01-06T05:57:41.820Z,99.90
2023-01-06T06:00:27.303Z,99.90
2023-01-06T06:03:12.958Z,99.90
2023-01-06T06:06:02.171Z,99.90
2023-01-06T06:08:47.548Z,99.90
2023-01-06T06:11:34.549Z,99.90
2023-01-06T06:14:19.941Z,99.90
2023-01-06T06:17:05.834Z,99.90
2023-01-06T06:19:51.514Z,99.90
2023-01-06T06:22:37.135Z,99.90
2023-01-06T06:25:22.820Z,99.90
2023-01-06T06:28:09.652Z,99.90
2023-01-06T06:30:55.703Z,99.90
2023-01-06T06:33:41.753Z,99.90
2023-01-06T06:36:27.298Z,99.90
2023-01-06T06:39:12.864Z,99.90
2023-01-06T06:41:58.346Z,99.90
2023-01-06T06:44:45.101Z,99.90
2023-01-06T06:47:30.644Z,99.90
2023-01-06T06:50:16.236Z,99.90
2023-01-06T06:53:01.503Z,99.90
2023-01-06T06:55:46.949Z,99.90
2023-01-06T06:58:32.216Z,99.90
2023-01-06T07:01:19.906Z,99.90
2023-01-06T07:04:05.536Z,99.90
2023-01-06T07:06:51.250Z,99.90
2023-01-06T07:09:37.036Z,99.90
2023-01-06T07:12:22.212Z,99.90
2023-01-06T07:15:08.293Z,99.90
2023-01-06T07:17:55.070Z,99.90
2023-01-06T07:20:40.628Z,99.90
2023-01-06T07:23:26.282Z,99.90
2023-01-06T07:26:11.981Z,99.90
2023-01-06T07:28:57.556Z,99.90
2023-01-06T07:31:43.093Z,99.90
2023-01-06T07:34:29.822Z,99.90
2023-01-06T07:37:15.260Z,99.90
2023-01-06T07:40:00.938Z,99.90
2023-01-06T07:42:47.389Z,99.90
2023-01-06T07:45:32.997Z,99.90
2023-01-06T07:48:18.523Z,99.90
2023-01-06T07:51:05.614Z,99.90
2023-01-06T07:53:51.562Z,99.90
2023-01-06T07:56:37.167Z,99.90
2023-01-06T07:59:22.664Z,99.90
2023-01-06T08:02:09.928Z,99.90
2023-01-06T08:04:55.252Z,99.90
2023-01-06T08:07:42.247Z,99.90
2023-01-06T08:10:27.656Z,99.90
2023-01-06T08:13:13.400Z,99.90
2023-01-06T08:15:59.118Z,99.90
2023-01-06T08:18:44.433Z,99.90
2023-01-06T08:21:29.776Z,99.90
2023-01-06T08:24:16.433Z,99.90
2023-01-06T08:27:02.003Z,99.90
2023-01-06T08:29:50.061Z,99.90
2023-01-06T08:32:35.674Z,99.90
2023-01-06T08:35:21.164Z,99.90
2023-01-06T08:38:06.939Z,99.90
2023-01-06T08:40:54.004Z,99.90
2023-01-06T08:43:40.505Z,99.90
2023-01-06T08:46:26.676Z,99.90
2023-01-06T08:49:12.343Z,99.90
2023-01-06T08:51:58.104Z,99.90
2023-01-06T08:54:43.235Z,99.90
2023-01-06T08:57:29.881Z,99.90
2023-01-06T09:00:16.237Z,99.90
2023-01-06T09:03:01.835Z,99.90
2023-01-06T09:05:51.959Z,99.90
2023-01-06T09:08:37.844Z,99.90
2023-01-06T09:11:23.733Z,99.90
2023-01-06T09:14:11.451Z,99.90
2023-01-06T09:16:56.808Z,99.90
2023-01-06T09:19:42.336Z,99.90
2023-01-06T09:22:27.754Z,99.90
2023-01-06T09:25:13.040Z,99.90
2023-01-06T09:27:59.194Z,99.90
2023-01-06T09:30:48.587Z,99.90
2023-01-06T09:33:34.586Z,99.90
2023-01-06T09:36:20.131Z,99.90
2023-01-06T09:39:05.563Z,99.90
2023-01-06T09:42:09.000Z,99.90
2023-01-06T09:44:55.783Z,99.90
2023-01-06T09:47:44.269Z,99.90
2023-01-06T09:50:31.253Z,99.90
2023-01-06T09:53:18.271Z,99.90
2023-01-06T09:56:08.906Z,99.90
2023-01-06T09:58:57.330Z,99.90
2023-01-06T10:01:49.938Z,99.90
2023-01-06T10:04:36.732Z,99.90
2023-01-06T10:07:26.483Z,99.90
2023-01-06T10:10:17.297Z,99.90
2023-01-06T10:13:09.859Z,99.90
2023-01-06T10:16:00.859Z,99.90
2023-01-06T10:18:51.446Z,99.90
2023-01-06T10:21:41.277Z,99.90
2023-01-06T10:24:34.013Z,99.90
2023-01-06T10:27:22.000Z,99.90
2023-01-06T10:30:16.287Z,99.90
2023-01-06T10:33:02.836Z,99.90
2023-01-06T10:35:49.110Z,99.90
2023-01-06T10:38:38.351Z,99.90
2023-01-06T10:41:27.581Z,99.90
2023-01-06T10:44:13.873Z,99.70
2023-01-06T10:47:00.287Z,99.60
2023-01-06T10:49:45.921Z,99.90
2023-01-06T10:52:31.966Z,99.00
2023-01-06T10:55:29.084Z,98.70
2023-01-06T10:58:17.922Z,98.80
2023-01-06T11:01:08.574Z,98.70
2023-01-06T11:04:04.691Z,97.70
2023-01-06T11:06:51.203Z,96.90
2023-01-06T11:09:39.366Z,97.00
2023-01-06T11:12:28.741Z,97.10
2023-01-06T11:15:19.283Z,98.40
2023-01-06T11:18:05.266Z,97.70
2023-01-06T11:21:05.591Z,97.70
2023-01-06T11:23:57.976Z,98.60
2023-01-06T11:26:44.727Z,99.10
2023-01-06T11:29:33.091Z,99.60
2023-01-06T11:32:20.851Z,99.50
2023-01-06T11:35:06.628Z,99.30
2023-01-06T11:37:57.068Z,99.00
2023-01-06T11:40:43.074Z,99.40
2023-01-06T11:43:31.299Z,99.50
2023-01-06T11:46:20.965Z,99.90
2023-01-06T11:49:11.621Z,99.80
2023-01-06T11:52:02.615Z,99.90
2023-01-06T11:54:56.759Z,99.40
2023-01-06T11:57:46.073Z,99.60
2023-01-06T12:00:37.211Z,99.90
2023-01-06T12:03:31.098Z,99.90
2023-01-06T12:06:23.738Z,99.90
2023-01-06T12:09:13.189Z,99.90
2023-01-06T12:11:59.228Z,99.90
2023-01-06T12:14:45.781Z,99.90
2023-01-06T12:17:38.042Z,99.90
2023-01-06T12:20:27.221Z,99.90
2023-01-06T12:23:15.387Z,99.90
2023-01-06T12:26:02.428Z,99.90
2023-01-06T12:28:48.712Z,99.60
2023-01-06T12:31:43.363Z,99.00
2023-01-06T12:34:32.027Z,99.30
2023-01-06T12:37:20.702Z,99.50
2023-01-06T12:40:12.602Z,99.30
2023-01-06T12:43:00.341Z,98.90
2023-01-06T12:45:57.144Z,98.70
2023-01-06T12:48:47.082Z,98.00
2023-01-06T12:51:35.985Z,96.50
2023-01-06T12:54:24.365Z,95.80
2023-01-06T12:57:16.326Z,95.70
2023-01-06T13:00:06.752Z,95.70
2023-01-06T13:02:59.295Z,94.40
2023-01-06T13:05:55.011Z,94.40
2023-01-06T13:08:51.121Z,93.40
2023-01-06T13:11:42.682Z,92.60
2023-01-06T13:14:33.189Z,92.00
2023-01-06T13:17:21.640Z,91.60
2023-01-06T13:20:14.675Z,91.70
2023-01-06T13:23:05.717Z,90.20
2023-01-06T13:26:06.179Z,89.50
2023-01-06T13:28:59.336Z,90.60
2023-01-06T13:31:57.132Z,88.90
2023-01-06T13:34:53.825Z,90.00
2023-01-06T13:37:40.590Z,90.20
2023-01-06T13:40:34.015Z,90.00
2023-01-06T13:43:22.742Z,90.50
2023-01-06T13:46:12.489Z,91.80
2023-01-06T13:48:58.876Z,92.10
2023-01-06T13:51:44.583Z,93.00
2023-01-06T13:54:49.070Z,92.90
2023-01-06T13:57:36.952Z,93.70
2023-01-06T14:00:25.216Z,94.80
2023-01-06T14:03:22.301Z,95.10
2023-01-06T14:06:10.281Z,95.20
2023-01-06T14:08:57.294Z,95.20
2023-01-06T14:11:43.047Z,95.80
2023-01-06T14:14:32.731Z,96.30
2023-01-06T14:17:27.840Z,97.00
2023-01-06T14:20:27.586Z,97.40
2023-01-06T14:23:21.327Z,97.20
2023-01-06T14:26:08.262Z,97.40
2023-01-06T14:28:53.961Z,97.80
2023-01-06T14:31:39.577Z,97.60
2023-01-06T14:34:25.230Z,97.80
2023-01-06T14:37:13.230Z,97.90
2023-01-06T14:39:59.241Z,98.40
2023-01-06T14:42:45.584Z,98.50
2023-01-06T14:45:35.174Z,98.50
2023-01-06T14:48:22.155Z,98.20
2023-01-06T14:51:12.257Z,98.10
2023-01-06T14:54:04.001Z,98.40
2023-01-06T14:56:53.665Z,98.60
2023-01-06T14:59:39.265Z,98.90
2023-01-06T15:02:26.025Z,98.70
2023-01-06T15:05:17.321Z,99.00
2023-01-06T15:08:04.029Z,99.60
2023-01-06T15:10:51.455Z,99.80
2023-01-06T15:13:36.975Z,99.80
2023-01-06T15:16:27.785Z,99.90
2023-01-06T15:19:15.214Z,99.90
2023-01-06T15:22:01.204Z,99.90
2023-01-06T15:24:47.358Z,99.90
2023-01-06T15:27:34.280Z,99.90
2023-01-06T15:30:20.961Z,99.90
2023-01-06T15:33:06.425Z,99.90
2023-01-06T15:35:52.950Z,99.90
2023-01-06T15:38:40.394Z,99.90
2023-01-06T15:41:36.788Z,99.90
2023-01-06T15:44:28.144Z,99.90
2023-01-06T15:47:20.801Z,99.90
2023-01-06T15:50:07.761Z,99.90
2023-01-06T15:52:54.733Z,99.90
2023-01-06T15:55:43.556Z,99.90
2023-01-06T15:58:30.433Z,99.90
2023-01-06T16:01:18.360Z,99.90
2023-01-06T16:04:05.600Z,99.90
2023-01-06T16:06:51.576Z,99.90
2023-01-06T16:09:37.988Z,99.90
2023-01-06T16:12:23.499Z,99.90
2023-01-06T16:15:27.862Z,99.90
2023-01-06T16:18:15.689Z,99.90
2023-01-06T16:21:13.102Z,99.90
2023-01-06T16:24:00.157Z,99.90
2023-01-06T16:26:49.842Z,99.90
2023-01-06T16:29:36.380Z,99.90
2023-01-06T16:32:26.991Z,99.90
2023-01-06T16:35:15.221Z,99.90
2023-01-06T16:38:01.041Z,99.90
2023-01-06T16:40:50.166Z,99.90
2023-01-06T16:43:35.872Z,99.90
2023-01-06T16:46:22.391Z,99.90
2023-01-06T16:49:08.790Z,99.90
2023-01-06T16:51:55.760Z,99.90
2023-01-06T16:54:41.231Z,99.90
2023-01-06T16:57:27.018Z,99.90
2023-01-06T17:00:14.365Z,99.90
2023-01-06T17:03:00.188Z,99.90
2023-01-06T17:05:46.034Z,99.90
2023-01-06T17:08:36.037Z,99.90
2023-01-06T17:11:22.928Z,99.90
2023-01-06T17:14:13.185Z,99.90
2023-01-06T17:16:59.985Z,99.90
2023-01-06T17:19:45.369Z,99.90
2023-01-06T17:22:31.375Z,99.90
2023-01-06T17:25:19.865Z,99.90
2023-01-06T17:28:13.556Z,99.90
2023-01-06T17:30:59.822Z,99.90
2023-01-06T17:33:45.606Z,99.90
2023-01-06T17:36:34.230Z,99.90
2023-01-06T17:39:21.569Z,99.90
2023-01-06T17:42:27.651Z,99.90
2023-01-06T17:45:17.963Z,99.90
2023-01-06T17:48:09.520Z,99.90
2023-01-06T17:50:55.613Z,99.90
2023-01-06T17:53:59.969Z,99.90
2023-01-06T17:56:46.476Z,99.90
2023-01-06T17:59:35.133Z,99.90
2023-01-06T18:02:38.615Z,99.90
2023-01-06T18:05:44.223Z,99.90
2023-01-06T18:08:30.629Z,99.90
2023-01-06T18:11:30.177Z,99.90
2023-01-06T18:14:23.879Z,99.90
2023-01-06T18:17:21.265Z,99.90
2023-01-06T18:20:09.443Z,99.90
2023-01-06T18:22:55.918Z,99.90
2023-01-06T18:25:41.664Z,99.90
2023-01-06T18:28:28.516Z,99.90
2023-01-06T18:31:14.183Z,99.90
2023-01-06T18:34:01.679Z,99.90
2023-01-06T18:36:49.601Z,99.90
2023-01-06T18:39:38.555Z,99.90
2023-01-06T18:42:25.558Z,99.90
2023-01-06T18:45:26.136Z,99.90
2023-01-06T18:48:14.178Z,99.90
2023-01-06T18:51:02.082Z,99.90
2023-01-06T18:53:47.710Z,99.90
2023-01-06T18:56:34.817Z,99.90
2023-01-06T18:59:21.610Z,99.90
2023-01-06T19:02:21.382Z,99.90
2023-01-06T19:05:11.626Z,99.90
2023-01-06T19:08:01.660Z,99.90
2023-01-06T19:10:48.866Z,99.90
2023-01-06T19:13:38.315Z,99.90
2023-01-06T19:16:26.688Z,99.90
2023-01-06T19:19:17.021Z,99.90
2023-01-06T19:22:17.611Z,99.90
2023-01-06T19:25:07.409Z,99.90
2023-01-06T19:27:54.833Z,99.90
2023-01-06T19:30:42.214Z,99.90
2023-01-06T19:33:36.750Z,99.90
2023-01-06T19:36:27.941Z,99.90
2023-01-06T19:39:28.393Z,99.90
2023-01-06T19:42:17.206Z,99.90
2023-01-06T19:45:13.859Z,99.90
2023-01-06T19:48:00.195Z,99.90
2023-01-06T19:50:46.057Z,99.90
2023-01-06T19:53:34.769Z,99.90
2023-01-06T19:56:22.714Z,99.90
2023-01-06T19:59:15.291Z,99.90
2023-01-06T20:02:04.191Z,99.90
2023-01-06T20:04:50.287Z,99.90
2023-01-06T20:07:36.475Z,99.90
2023-01-06T20:10:22.046Z,99.90
2023-01-06T20:13:07.758Z,99.90
2023-01-06T20:15:54.957Z,99.90
2023-01-06T20:18:40.415Z,99.90
2023-01-06T20:21:26.141Z,99.90
2023-01-06T20:24:14.186Z,99.90
2023-01-06T20:27:00.089Z,99.90
2023-01-06T20:29:45.544Z,99.90
2023-01-06T20:32:32.543Z,99.90
2023-01-06T20:35:17.958Z,99.90
2023-01-06T20:38:03.596Z,99.90
2023-01-06T20:40:50.244Z,99.90
2023-01-06T20:43:35.993Z,99.90
2023-01-06T20:46:21.516Z,99.90
2023-01-06T20:49:08.435Z,99.90
2023-01-06T20:51:53.864Z,99.90
2023-01-06T20:54:39.370Z,99.90
2023-01-06T20:57:25.768Z,99.90
2023-01-06T21:00:12.447Z,99.90
2023-01-06T21:02:57.874Z,99.90
2023-01-06T21:05:45.065Z,99.90
2023-01-06T21:08:30.573Z,99.90
2023-01-06T21:11:16.187Z,99.90
2023-01-06T21:14:01.860Z,99.90
2023-01-06T21:16:47.828Z,99.90
2023-01-06T21:19:33.407Z,99.90
2023-01-06T21:22:20.748Z,99.90
2023-01-06T21:25:06.556Z,99.90
2023-01-06T21:27:52.664Z,99.90
2023-01-06T21:30:38.696Z,99.90
2023-01-06T21:33:24.357Z,99.90
2023-01-06T21:36:10.001Z,99.90
2023-01-06T21:38:56.989Z,99.90
2023-01-06T21:42:01.092Z,99.90
2023-01-06T21:44:46.745Z,99.90
2023-01-06T21:47:32.209Z,99.90
2023-01-06T21:50:17.864Z,99.90
2023-01-06T21:53:03.402Z,99.90
2023-01-06T21:55:50.377Z,99.90
2023-01-06T21:58:36.094Z,99.90
2023-01-06T22:01:22.108Z,99.90
2023-01-06T22:04:08.001Z,99.90
2023-01-06T22:06:54.122Z,99.90
2023-01-06T22:09:40.478Z,99.90
2023-01-06T22:12:28.100Z,99.90
2023-01-06T22:15:14.384Z,99.90
2023-01-06T22:18:00.310Z,99.90
2023-01-06T22:20:46.871Z,99.90
2023-01-06T22:23:34.219Z,99.90
2023-01-06T22:26:20.478Z,99.90
2023-01-06T22:29:08.518Z,99.90
2023-01-06T22:31:55.775Z,99.90
2023-01-06T22:34:42.169Z,99.90
2023-01-06T22:37:28.082Z,99.90
2023-01-06T22:40:15.000Z,99.90
2023-01-06T22:43:00.760Z,99.90
2023-01-06T22:45:52.654Z,99.90
2023-01-06T22:48:39.015Z,99.90
2023-01-06T22:51:26.127Z,99.90
2023-01-06T22:54:11.970Z,99.90
2023-01-06T22:56:58.222Z,99.90
2023-01-06T22:59:43.944Z,99.90
2023-01-06T23:02:31.412Z,99.90
2023-01-06T23:05:17.272Z,99.90
2023-01-06T23:08:04.096Z,99.90
2023-01-06T23:10:50.071Z,99.90
2023-01-06T23:13:37.076Z,99.90
2023-01-06T23:16:23.254Z,99.90
2023-01-06T23:19:13.491Z,99.90
2023-01-06T23:21:59.258Z,99.90
2023-01-06T23:24:44.425Z,99.90
2023-01-06T23:27:31.442Z,99.90
2023-01-06T23:30:17.279Z,99.90
2023-01-06T23:33:02.952Z,99.90
2023-01-06T23:35:50.172Z,99.90
2023-01-06T23:41:20.763Z,99.90
2023-01-06T23:44:07.102Z,99.90
2023-01-06T23:46:52.705Z,99.90
2023-01-06T23:49:38.386Z,99.90
2023-01-06T23:52:24.258Z,99.90
2023-01-06T23:55:10.172Z,99.90
2023-01-06T23:57:57.849Z,99.90
